EmailTwitter


Observations de surface / Québec / CYQB (71714)

Régions: Québec | Canada | États-Unis | Europe | France | UK | Ailleurs
Station
Affichage
Infos & localisation pour CYQB (71714) | Aide pour décoder les METARs

Observations prises le 2019-04-22 à 06H00 UTC à QUEBEC A, QB (CYQB)

Etat du ciel: partiellement nuageux.

Température: 5.0 Celsius

Point de rosée: 4.0 Celsius

Humidité relative: 93%

Vents: Calme à 0 km/h ou 0 noeuds.

Pression au niveau moyen de la mer: 102.17 kilopascals.

Calage altimétrique: 102.13 kilopascals ou 30.16 pouces de mercure.

Visibilité horizontale: 15.00 milles terrestres ou 24.00 kilomètres.

Hauteur du plafond: 1250 mètres ( 4100 pieds ).

Observation METAR:

CYQB 220600Z 00000KT 15SM BKN041 BKN110 BKN230 05/04 A3016 RMK SC5AC1CI2 AC TR

SLP217=